createdAt,value
2022-09-06T00:00:59.918Z,2.45
2022-09-06T00:03:29.565Z,2.40
2022-09-06T00:05:56.063Z,2.08
2022-09-06T00:08:22.572Z,2.40
2022-09-06T00:11:01.152Z,2.28
2022-09-06T00:13:28.580Z,2.20
2022-09-06T00:15:55.276Z,2.30
2022-09-06T00:18:22.415Z,2.15
2022-09-06T00:20:49.016Z,2.25
2022-09-06T00:23:15.525Z,2.15
2022-09-06T00:25:42.068Z,2.33
2022-09-06T00:28:08.606Z,2.45
2022-09-06T00:30:35.176Z,2.03
2022-09-06T00:33:01.725Z,2.08
2022-09-06T00:35:29.117Z,2.50
2022-09-06T00:38:01.959Z,2.55
2022-09-06T00:40:30.376Z,1.90
2022-09-06T00:42:57.682Z,2.47
2022-09-06T00:45:26.411Z,2.70
2022-09-06T00:47:52.993Z,2.67
2022-09-06T00:50:19.920Z,2.63
2022-09-06T00:52:50.988Z,2.40
2022-09-06T00:55:18.212Z,2.30
2022-09-06T00:57:46.561Z,2.45
2022-09-06T01:00:13.504Z,2.33
2022-09-06T01:02:40.115Z,2.28
2022-09-06T01:05:07.188Z,2.10
2022-09-06T01:07:59.806Z,2.45
2022-09-06T01:11:03.930Z,2.38
2022-09-06T01:14:21.536Z,2.35
2022-09-06T01:17:25.259Z,2.10
2022-09-06T01:20:21.850Z,2.40
2022-09-06T01:23:04.710Z,2.30
2022-09-06T01:26:15.814Z,2.80
2022-09-06T01:28:49.264Z,2.10
2022-09-06T01:31:24.944Z,2.17
2022-09-06T01:34:03.655Z,2.50
2022-09-06T01:36:45.809Z,2.55
2022-09-06T01:39:28.436Z,2.60
2022-09-06T01:41:57.857Z,2.25
2022-09-06T01:44:27.259Z,2.80
2022-09-06T01:46:57.874Z,2.50
2022-09-06T01:49:52.720Z,2.40
2022-09-06T01:52:35.587Z,2.22
2022-09-06T01:55:17.009Z,2.17
2022-09-06T01:58:09.150Z,2.50
2022-09-06T02:00:45.185Z,2.28
2022-09-06T02:06:09.495Z,2.65
2022-09-06T02:08:41.059Z,2.63
2022-09-06T02:11:09.286Z,2.40
2022-09-06T02:13:47.668Z,2.92
2022-09-06T02:16:17.540Z,3.10
2022-09-06T02:18:59.246Z,2.50
2022-09-06T02:21:33.188Z,2.50
2022-09-06T02:24:03.109Z,2.08
2022-09-06T02:26:35.483Z,2.42
2022-09-06T02:29:02.185Z,2.30
2022-09-06T02:31:33.773Z,2.33
2022-09-06T02:34:01.014Z,2.42
2022-09-06T02:36:29.811Z,2.10
2022-09-06T02:38:57.138Z,2.60
2022-09-06T02:41:24.928Z,2.38
2022-09-06T02:43:51.453Z,2.80
2022-09-06T02:46:18.026Z,2.35
2022-09-06T02:48:44.606Z,2.50
2022-09-06T02:51:11.192Z,2.60
2022-09-06T02:53:37.995Z,2.30
2022-09-06T02:56:04.652Z,2.20
2022-09-06T02:58:31.265Z,2.50
2022-09-06T03:00:58.013Z,2.55
2022-09-06T03:03:25.065Z,2.25
2022-09-06T03:05:52.684Z,2.50
2022-09-06T03:08:21.284Z,2.42
2022-09-06T03:10:52.091Z,2.63
2022-09-06T03:13:18.882Z,2.55
2022-09-06T03:15:49.496Z,2.47
2022-09-06T03:18:15.989Z,2.50
2022-09-06T03:20:42.567Z,2.72
2022-09-06T03:23:09.556Z,2.80
2022-09-06T03:25:36.065Z,2.53
2022-09-06T03:28:03.092Z,2.30
2022-09-06T03:30:29.686Z,2.53
2022-09-06T03:32:57.500Z,2.28
2022-09-06T03:35:26.350Z,3.08
2022-09-06T03:37:52.946Z,2.60
2022-09-06T03:40:19.483Z,2.35
2022-09-06T03:42:46.555Z,2.30
2022-09-06T03:45:13.413Z,2.63
2022-09-06T03:47:39.992Z,2.42
2022-09-06T03:50:07.275Z,2.60
2022-09-06T03:52:33.782Z,2.78
2022-09-06T03:55:00.300Z,2.55
2022-09-06T03:57:26.777Z,2.60
2022-09-06T03:59:53.292Z,2.58
2022-09-06T04:02:19.827Z,2.72
2022-09-06T04:04:46.553Z,2.30
2022-09-06T04:07:13.157Z,2.40
2022-09-06T04:09:39.632Z,2.83
2022-09-06T04:12:06.375Z,2.72
2022-09-06T04:14:32.901Z,2.83
2022-09-06T04:16:59.461Z,2.50
2022-09-06T04:19:25.984Z,2.42
2022-09-06T04:21:52.469Z,2.80
2022-09-06T04:24:18.947Z,3.00
2022-09-06T04:26:45.421Z,2.85
2022-09-06T04:29:11.914Z,2.60
2022-09-06T04:31:38.493Z,2.70
2022-09-06T04:34:05.023Z,2.85
2022-09-06T04:36:31.560Z,3.00
2022-09-06T04:38:58.080Z,3.00
2022-09-06T04:41:24.614Z,2.78
2022-09-06T04:43:51.214Z,2.60
2022-09-06T04:46:22.352Z,2.53
2022-09-06T04:48:49.411Z,2.95
2022-09-06T04:51:16.082Z,2.97
2022-09-06T04:53:42.722Z,2.75
2022-09-06T04:56:15.952Z,3.40
2022-09-06T04:58:44.289Z,2.90
2022-09-06T05:01:11.347Z,2.88
2022-09-06T05:03:38.024Z,3.83
2022-09-06T05:06:18.879Z,2.90
2022-09-06T05:08:45.383Z,2.83
2022-09-06T05:11:12.355Z,3.30
2022-09-06T05:13:39.454Z,2.97
2022-09-06T05:16:07.537Z,3.40
2022-09-06T05:18:34.917Z,2.95
2022-09-06T05:21:01.921Z,3.30
2022-09-06T05:23:28.746Z,3.03
2022-09-06T05:25:55.330Z,3.38
2022-09-06T05:28:22.264Z,3.17
2022-09-06T05:30:48.789Z,3.60
2022-09-06T05:33:21.861Z,3.97
2022-09-06T05:35:48.835Z,3.97
2022-09-06T05:38:15.599Z,4.25
2022-09-06T05:40:42.306Z,4.88
2022-09-06T05:43:08.774Z,4.38
2022-09-06T05:45:35.350Z,4.43
2022-09-06T05:48:02.045Z,4.70
2022-09-06T05:50:28.556Z,4.47
2022-09-06T05:52:55.046Z,4.45
2022-09-06T05:55:21.679Z,4.72
2022-09-06T05:57:48.190Z,3.45
2022-09-06T06:00:14.911Z,3.45
2022-09-06T06:02:41.568Z,3.97
2022-09-06T06:05:08.420Z,4.32
2022-09-06T06:07:35.160Z,3.60
2022-09-06T06:10:01.703Z,3.35
2022-09-06T06:12:28.226Z,3.67
2022-09-06T06:14:54.772Z,4.13
2022-09-06T06:17:21.378Z,3.17
2022-09-06T06:19:48.045Z,3.20
2022-09-06T06:22:14.534Z,3.40
2022-09-06T06:24:41.008Z,4.07
2022-09-06T06:27:07.502Z,4.03
2022-09-06T06:29:34.102Z,3.45
2022-09-06T06:32:00.709Z,3.50
2022-09-06T06:34:27.352Z,4.10
2022-09-06T06:36:53.872Z,3.38
2022-09-06T06:39:21.298Z,3.30
2022-09-06T06:41:49.709Z,2.97
2022-09-06T06:44:45.342Z,3.15
2022-09-06T06:47:11.819Z,3.70
2022-09-06T06:49:38.356Z,3.00
2022-09-06T06:52:04.911Z,3.10
2022-09-06T06:54:31.604Z,3.60
2022-09-06T06:56:58.096Z,2.90
2022-09-06T06:59:24.705Z,3.10
2022-09-06T07:01:51.373Z,4.03
2022-09-06T07:04:18.034Z,3.50
2022-09-06T07:12:25.294Z,3.53
2022-09-06T07:14:51.796Z,2.70
2022-09-06T07:17:18.258Z,3.00
2022-09-06T07:22:31.231Z,2.83
2022-09-06T07:24:57.728Z,2.70
2022-09-06T07:30:11.404Z,3.30
2022-09-06T07:32:38.149Z,2.63
2022-09-06T07:35:05.169Z,2.55
2022-09-06T07:37:31.657Z,2.72
2022-09-06T07:39:58.245Z,2.72
2022-09-06T07:42:24.750Z,2.35
2022-09-06T07:44:51.250Z,2.63
2022-09-06T07:53:08.559Z,2.35
2022-09-06T07:55:37.838Z,2.08
2022-09-06T07:58:04.346Z,2.03
2022-09-06T08:00:31.672Z,2.40
2022-09-06T08:02:58.740Z,2.30
2022-09-06T08:10:58.223Z,2.15
2022-09-06T08:13:24.749Z,2.00
2022-09-06T08:15:59.289Z,1.75
2022-09-06T08:18:26.071Z,2.38
2022-09-06T08:20:52.620Z,1.90
2022-09-06T08:23:19.248Z,2.55
2022-09-06T08:25:56.830Z,2.17
2022-09-06T08:28:26.805Z,2.33
2022-09-06T08:30:55.276Z,2.42
2022-09-06T08:33:25.414Z,2.28
2022-09-06T08:35:58.642Z,2.13
2022-09-06T08:38:26.183Z,1.95
2022-09-06T08:40:54.314Z,1.77
2022-09-06T08:43:22.618Z,1.67
2022-09-06T08:45:55.964Z,1.92
2022-09-06T08:48:26.103Z,2.40
2022-09-06T08:51:24.668Z,2.20
2022-09-06T08:53:56.760Z,2.50
2022-09-06T08:56:27.136Z,2.17
2022-09-06T08:58:59.707Z,2.08
2022-09-06T09:01:34.290Z,2.30
2022-09-06T09:04:05.414Z,2.08
2022-09-06T09:06:33.437Z,1.80
2022-09-06T09:09:09.280Z,2.05
2022-09-06T09:14:08.709Z,2.70
2022-09-06T09:16:35.484Z,2.40
2022-09-06T09:19:04.979Z,1.90
2022-09-06T09:21:34.314Z,2.00
2022-09-06T09:24:09.352Z,1.70
2022-09-06T09:26:51.823Z,1.97
2022-09-06T09:29:20.860Z,1.60
2022-09-06T09:31:54.036Z,1.88
2022-09-06T09:34:35.488Z,1.95
2022-09-06T09:40:28.985Z,1.80
2022-09-06T09:43:08.812Z,1.55
2022-09-06T09:45:35.306Z,1.60
2022-09-06T09:48:20.558Z,1.55
2022-09-06T09:50:47.992Z,1.60
2022-09-06T09:53:18.205Z,1.50
2022-09-06T09:55:45.941Z,2.33
2022-09-06T09:58:22.873Z,1.70
2022-09-06T10:01:10.054Z,1.80
2022-09-06T10:09:19.173Z,1.95
2022-09-06T10:11:52.692Z,1.65
2022-09-06T10:14:49.234Z,1.55
2022-09-06T10:17:51.842Z,2.15
2022-09-06T10:20:19.021Z,1.67
2022-09-06T10:23:01.791Z,1.90
2022-09-06T10:25:49.007Z,1.92
2022-09-06T10:28:36.984Z,1.83
2022-09-06T10:31:10.167Z,1.85
2022-09-06T10:34:07.303Z,1.98
2022-09-06T10:36:36.928Z,1.77
2022-09-06T10:39:43.761Z,2.15
2022-09-06T10:42:36.462Z,1.92
2022-09-06T10:45:13.217Z,1.60
2022-09-06T10:48:02.871Z,1.88
2022-09-06T10:50:41.774Z,1.83
2022-09-06T10:53:16.816Z,1.33
2022-09-06T10:55:49.181Z,1.90
2022-09-06T10:58:23.448Z,1.92
2022-09-06T11:00:52.500Z,1.70
2022-09-06T11:06:17.309Z,2.40
2022-09-06T11:09:00.096Z,1.40
2022-09-06T11:11:54.349Z,1.50
2022-09-06T11:14:22.702Z,1.58
2022-09-06T11:16:57.656Z,1.60
2022-09-06T11:19:32.304Z,1.42
2022-09-06T11:22:01.650Z,1.40
2022-09-06T11:24:40.820Z,1.50
2022-09-06T11:27:28.597Z,1.48
2022-09-06T11:29:56.603Z,1.30
2022-09-06T11:32:35.478Z,1.35
2022-09-06T11:35:07.386Z,1.50
2022-09-06T11:37:39.576Z,1.50
2022-09-06T11:40:30.398Z,1.40
2022-09-06T11:42:59.261Z,1.17
2022-09-06T11:45:51.288Z,1.60
2022-09-06T11:48:23.830Z,1.20
2022-09-06T11:50:59.077Z,1.30
2022-09-06T11:53:31.034Z,1.17
2022-09-06T11:56:00.375Z,1.35
2022-09-06T11:58:33.867Z,1.48
2022-09-06T12:01:12.196Z,1.33
2022-09-06T12:06:37.533Z,1.38
2022-09-06T12:09:37.585Z,1.02
2022-09-06T12:12:04.663Z,1.20
2022-09-06T12:14:41.495Z,1.10
2022-09-06T12:17:08.856Z,1.10
2022-09-06T12:19:49.205Z,1.38
2022-09-06T12:22:27.686Z,1.27
2022-09-06T12:25:02.115Z,1.63
2022-09-06T12:27:32.386Z,1.30
2022-09-06T12:30:01.831Z,1.42
2022-09-06T12:32:36.938Z,1.42
2022-09-06T12:37:59.879Z,1.70
2022-09-06T12:40:30.249Z,1.50
2022-09-06T12:42:57.172Z,1.27
2022-09-06T12:45:27.536Z,1.27
2022-09-06T12:48:09.234Z,1.27
2022-09-06T12:50:36.352Z,2.13
2022-09-06T12:53:17.253Z,1.50
2022-09-06T12:55:45.193Z,1.67
2022-09-06T12:58:12.480Z,1.50
2022-09-06T13:00:51.560Z,1.40
2022-09-06T13:03:29.404Z,1.50
2022-09-06T13:05:57.441Z,1.33
2022-09-06T13:08:34.550Z,1.73
2022-09-06T13:11:03.642Z,1.30
2022-09-06T13:13:30.205Z,1.40
2022-09-06T13:15:57.220Z,1.67
2022-09-06T13:18:32.972Z,1.23
2022-09-06T13:21:15.680Z,1.45
2022-09-06T13:23:47.743Z,1.30
2022-09-06T13:26:14.762Z,1.08
2022-09-06T13:28:41.516Z,1.15
2022-09-06T13:31:10.775Z,1.13
2022-09-06T13:33:37.876Z,1.15
2022-09-06T13:36:13.485Z,1.15
2022-09-06T13:41:27.360Z,1.00
2022-09-06T13:44:03.259Z,1.00
2022-09-06T13:46:30.252Z,1.20
2022-09-06T13:48:57.498Z,1.10
2022-09-06T13:51:24.596Z,1.77
2022-09-06T13:53:51.113Z,1.30
2022-09-06T13:56:17.772Z,1.30
2022-09-06T13:58:45.143Z,1.33
2022-09-06T14:01:12.046Z,1.33
2022-09-06T14:03:41.820Z,1.20
2022-09-06T14:06:09.882Z,1.13
2022-09-06T14:09:02.945Z,1.58
2022-09-06T14:11:25.430Z,1.05
2022-09-06T14:13:51.936Z,1.20
2022-09-06T14:16:18.610Z,1.45
2022-09-06T14:18:45.224Z,1.50
2022-09-06T14:21:12.268Z,1.52
2022-09-06T14:23:38.800Z,1.70
2022-09-06T14:26:05.528Z,1.20
2022-09-06T14:28:33.858Z,1.20
2022-09-06T14:31:14.679Z,1.60
2022-09-06T14:33:41.271Z,1.23
2022-09-06T14:36:19.823Z,1.38
2022-09-06T14:38:47.263Z,1.38
2022-09-06T14:41:16.062Z,1.40
2022-09-06T14:43:43.770Z,1.33
2022-09-06T14:46:14.180Z,1.50
2022-09-06T14:48:42.780Z,1.13
2022-09-06T14:51:10.790Z,1.50
2022-09-06T14:53:42.408Z,1.55
2022-09-06T14:56:10.226Z,1.55
2022-09-06T14:58:38.614Z,1.30
2022-09-06T15:01:11.765Z,1.60
2022-09-06T15:03:39.851Z,1.30
2022-09-06T15:06:06.824Z,1.17
2022-09-06T15:08:33.388Z,1.60
2022-09-06T15:11:01.074Z,1.35
2022-09-06T15:13:28.427Z,1.40
2022-09-06T15:15:55.783Z,1.40
2022-09-06T15:18:23.402Z,1.48
2022-09-06T15:20:50.542Z,1.30
2022-09-06T15:23:25.655Z,1.40
2022-09-06T15:28:19.634Z,1.30
2022-09-06T15:30:46.949Z,1.25
2022-09-06T15:33:14.983Z,1.42
2022-09-06T15:35:44.770Z,2.13
2022-09-06T15:38:12.393Z,1.40
2022-09-06T15:40:39.102Z,1.20
2022-09-06T15:43:05.701Z,1.00
2022-09-06T15:45:46.145Z,1.23
2022-09-06T15:48:12.824Z,1.10
2022-09-06T15:50:50.880Z,1.10
2022-09-06T15:53:18.391Z,0.90
2022-09-06T15:55:57.139Z,1.05
2022-09-06T15:58:25.232Z,0.98
2022-09-06T16:01:02.126Z,1.17
2022-09-06T16:03:28.838Z,1.00
2022-09-06T16:08:58.501Z,1.20
2022-09-06T16:11:26.559Z,0.80
2022-09-06T16:13:53.190Z,1.30
2022-09-06T16:16:21.520Z,1.58
2022-09-06T16:18:48.473Z,1.10
2022-09-06T16:21:21.567Z,1.30
2022-09-06T16:23:50.706Z,1.13
2022-09-06T16:26:21.298Z,1.08
2022-09-06T16:28:50.215Z,1.10
2022-09-06T16:31:17.715Z,1.30
2022-09-06T16:33:45.560Z,1.33
2022-09-06T16:36:13.897Z,1.15
2022-09-06T16:38:41.407Z,1.10
2022-09-06T16:41:20.728Z,1.30
2022-09-06T16:43:49.318Z,1.35
2022-09-06T16:46:16.818Z,1.40
2022-09-06T16:48:43.529Z,1.10
2022-09-06T16:51:17.620Z,1.20
2022-09-06T16:53:46.508Z,1.42
2022-09-06T16:56:16.120Z,1.20
2022-09-06T16:58:43.703Z,1.40
2022-09-06T17:01:10.792Z,1.30
2022-09-06T17:03:38.335Z,1.13
2022-09-06T17:06:06.783Z,1.35
2022-09-06T17:08:34.312Z,1.40
2022-09-06T17:11:06.510Z,1.30
2022-09-06T17:13:33.279Z,1.23
2022-09-06T17:16:22.094Z,1.15
2022-09-06T17:18:49.343Z,1.20
2022-09-06T17:21:16.517Z,1.00
2022-09-06T17:23:43.544Z,1.30
2022-09-06T17:26:10.082Z,1.15
2022-09-06T17:28:39.613Z,1.27
2022-09-06T17:31:07.601Z,1.25
2022-09-06T17:33:35.261Z,1.38
2022-09-06T17:36:07.117Z,1.42
2022-09-06T17:38:34.487Z,1.50
2022-09-06T17:41:02.164Z,1.35
2022-09-06T17:43:28.861Z,1.50
2022-09-06T17:45:55.391Z,1.40
2022-09-06T17:48:22.041Z,1.52
2022-09-06T17:50:48.791Z,1.70
2022-09-06T17:53:15.345Z,1.35
2022-09-06T17:55:44.352Z,1.63
2022-09-06T17:58:11.083Z,1.10
2022-09-06T18:00:40.281Z,1.52
2022-09-06T18:03:07.948Z,1.70
2022-09-06T18:05:39.710Z,1.30
2022-09-06T18:08:07.815Z,1.80
2022-09-06T18:10:37.930Z,1.40
2022-09-06T18:13:06.014Z,1.30
2022-09-06T18:15:38.078Z,1.50
2022-09-06T18:18:04.685Z,1.98
2022-09-06T18:20:31.216Z,1.58
2022-09-06T18:22:58.060Z,1.70
2022-09-06T18:25:24.651Z,1.70
2022-09-06T18:27:51.200Z,1.67
2022-09-06T18:30:17.883Z,1.90
2022-09-06T18:32:44.765Z,1.35
2022-09-06T18:35:11.465Z,1.83
2022-09-06T18:37:38.669Z,1.60
2022-09-06T18:42:36.000Z,1.60
2022-09-06T18:45:02.533Z,1.85
2022-09-06T18:47:29.016Z,1.88
2022-09-06T18:49:55.639Z,1.77
2022-09-06T18:52:22.171Z,1.98
2022-09-06T18:54:49.389Z,1.83
2022-09-06T18:57:17.194Z,1.85
2022-09-06T18:59:44.625Z,2.25
2022-09-06T19:02:11.454Z,2.05
2022-09-06T19:04:38.183Z,1.58
2022-09-06T19:07:04.770Z,1.70
2022-09-06T19:09:31.405Z,2.00
2022-09-06T19:11:57.893Z,1.92
2022-09-06T19:14:24.475Z,1.98
2022-09-06T19:16:53.752Z,2.28
2022-09-06T19:19:21.772Z,1.83
2022-09-06T19:21:48.254Z,2.42
2022-09-06T19:24:16.008Z,1.73
2022-09-06T19:26:44.383Z,2.08
2022-09-06T19:29:16.065Z,2.10
2022-09-06T19:31:43.478Z,2.28
2022-09-06T19:34:12.192Z,2.38
2022-09-06T19:36:39.166Z,2.30
2022-09-06T19:39:08.133Z,2.00
2022-09-06T19:41:38.290Z,2.08
2022-09-06T19:44:07.742Z,1.80
2022-09-06T19:46:35.178Z,1.83
2022-09-06T19:49:02.353Z,1.83
2022-09-06T19:51:29.538Z,1.85
2022-09-06T19:54:00.433Z,1.90
2022-09-06T19:56:33.659Z,1.88
2022-09-06T19:59:02.383Z,1.90
2022-09-06T20:01:31.438Z,2.22
2022-09-06T20:03:59.861Z,1.60
2022-09-06T20:06:27.145Z,1.60
2022-09-06T20:08:56.116Z,2.22
2022-09-06T20:11:25.798Z,1.90
2022-09-06T20:13:52.892Z,2.00
2022-09-06T20:16:20.977Z,2.10
2022-09-06T20:18:48.413Z,2.35
2022-09-06T20:21:15.269Z,1.90
2022-09-06T20:23:41.840Z,2.03
2022-09-06T20:26:14.938Z,1.52
2022-09-06T20:28:42.246Z,1.98
2022-09-06T20:31:11.480Z,1.67
2022-09-06T20:33:38.178Z,2.00
2022-09-06T20:36:07.077Z,2.25
2022-09-06T20:38:39.210Z,1.73
2022-09-06T20:41:08.568Z,1.90
2022-09-06T20:43:36.871Z,1.92
2022-09-06T20:46:16.844Z,2.47
2022-09-06T20:48:45.383Z,1.98
2022-09-06T20:51:18.882Z,1.88
2022-09-06T20:53:48.454Z,2.03
2022-09-06T20:56:17.891Z,1.92
2022-09-06T20:58:51.956Z,2.22
2022-09-06T21:01:22.978Z,2.00
2022-09-06T21:03:52.568Z,1.85
2022-09-06T21:06:20.411Z,2.00
2022-09-06T21:08:47.913Z,2.13
2022-09-06T21:11:14.542Z,2.03
2022-09-06T21:13:41.135Z,1.77
2022-09-06T21:16:07.759Z,1.77
2022-09-06T21:18:35.723Z,1.35
2022-09-06T21:21:07.310Z,1.40
2022-09-06T21:23:36.419Z,1.30
2022-09-06T21:26:10.027Z,1.80
2022-09-06T21:28:38.932Z,1.27
2022-09-06T21:31:17.310Z,1.23
2022-09-06T21:33:46.340Z,1.25
2022-09-06T21:36:17.741Z,1.52
2022-09-06T21:38:46.946Z,1.10
2022-09-06T21:41:15.279Z,1.40
2022-09-06T21:43:42.856Z,1.20
2022-09-06T21:46:15.303Z,1.30
2022-09-06T21:48:44.384Z,1.20
2022-09-06T21:51:15.222Z,1.50
2022-09-06T21:53:43.744Z,1.20
2022-09-06T21:56:10.724Z,1.13
2022-09-06T21:58:37.458Z,1.13
2022-09-06T22:01:05.142Z,1.33
2022-09-06T22:03:35.181Z,1.20
2022-09-06T22:06:13.835Z,1.33
2022-09-06T22:08:43.915Z,1.50
2022-09-06T22:11:14.863Z,1.77
2022-09-06T22:13:42.173Z,1.45
2022-09-06T22:16:09.794Z,1.60
2022-09-06T22:18:37.069Z,1.33
2022-09-06T22:21:09.374Z,1.25
2022-09-06T22:23:36.409Z,1.45
2022-09-06T22:26:07.949Z,1.38
2022-09-06T22:28:34.630Z,1.42
2022-09-06T22:31:01.878Z,1.33
2022-09-06T22:33:28.866Z,1.42
2022-09-06T22:35:55.652Z,1.52
2022-09-06T22:38:22.216Z,1.52
2022-09-06T22:40:49.205Z,2.28
2022-09-06T22:43:15.878Z,1.65
2022-09-06T22:45:49.797Z,1.52
2022-09-06T22:55:38.781Z,1.63
2022-09-06T22:58:05.875Z,1.73
2022-09-06T23:00:36.166Z,1.75
2022-09-06T23:03:02.874Z,1.40
2022-09-06T23:05:31.525Z,1.52
2022-09-06T23:08:00.206Z,2.05
2022-09-06T23:10:27.478Z,1.92
2022-09-06T23:12:54.692Z,1.52
2022-09-06T23:15:21.651Z,1.40
2022-09-06T23:17:48.144Z,1.85
2022-09-06T23:20:14.753Z,1.70
2022-09-06T23:22:41.237Z,1.83
2022-09-06T23:25:08.679Z,1.70
2022-09-06T23:27:35.187Z,1.70
2022-09-06T23:30:03.190Z,1.52
2022-09-06T23:32:32.089Z,2.05
2022-09-06T23:34:58.769Z,1.52
2022-09-06T23:37:25.244Z,1.45
2022-09-06T23:39:52.578Z,1.88
2022-09-06T23:42:19.888Z,1.60
2022-09-06T23:44:46.389Z,1.52
2022-09-06T23:47:12.864Z,1.98
2022-09-06T23:49:39.359Z,1.70
2022-09-06T23:52:06.151Z,1.70
2022-09-06T23:54:32.707Z,1.80
2022-09-06T23:56:59.300Z,2.00
2022-09-06T23:59:25.795Z,1.48
